createdAt,value
2022-11-02T00:01:40.733Z,13.20
2022-11-02T00:04:07.928Z,13.30
2022-11-02T00:06:34.697Z,13.30
2022-11-02T00:09:01.475Z,13.30
2022-11-02T00:11:28.302Z,13.20
2022-11-02T00:13:55.087Z,13.10
2022-11-02T00:16:23.010Z,13.10
2022-11-02T00:18:53.125Z,13.10
2022-11-02T00:21:21.754Z,13.10
2022-11-02T00:23:49.335Z,13.10
2022-11-02T00:26:16.822Z,13.00
2022-11-02T00:28:44.738Z,13.00
2022-11-02T00:31:11.540Z,12.80
2022-11-02T00:33:38.363Z,12.80
2022-11-02T00:36:05.667Z,12.90
2022-11-02T00:38:32.832Z,12.80
2022-11-02T00:41:00.043Z,12.80
2022-11-02T00:43:26.866Z,12.80
2022-11-02T00:45:53.576Z,12.80
2022-11-02T00:48:20.409Z,12.80
2022-11-02T00:50:47.681Z,12.80
2022-11-02T00:53:14.533Z,12.70
2022-11-02T00:55:41.302Z,12.60
2022-11-02T00:58:08.350Z,12.60
2022-11-02T01:00:35.284Z,12.60
2022-11-02T01:03:02.750Z,12.60
2022-11-02T01:05:30.281Z,12.50
2022-11-02T01:07:57.195Z,12.60
2022-11-02T01:10:26.185Z,12.60
2022-11-02T01:12:53.426Z,12.60
2022-11-02T01:15:20.607Z,12.60
2022-11-02T01:17:47.451Z,12.70
2022-11-02T01:20:14.682Z,12.60
2022-11-02T01:22:41.478Z,12.60
2022-11-02T01:25:09.200Z,12.50
2022-11-02T01:27:35.962Z,12.40
2022-11-02T01:30:04.554Z,12.40
2022-11-02T01:32:31.313Z,12.40
2022-11-02T01:34:58.071Z,12.50
2022-11-02T01:37:24.867Z,12.50
2022-11-02T01:39:51.579Z,12.50
2022-11-02T01:42:20.626Z,12.50
2022-11-02T01:44:47.807Z,12.50
2022-11-02T01:47:19.287Z,12.50
2022-11-02T01:49:48.892Z,12.40
2022-11-02T01:52:20.224Z,12.30
2022-11-02T01:54:58.853Z,12.30
2022-11-02T01:57:27.368Z,12.20
2022-11-02T02:00:04.001Z,12.10
2022-11-02T02:02:32.506Z,12.20
2022-11-02T02:05:04.467Z,11.90
2022-11-02T02:07:33.032Z,11.90
2022-11-02T02:10:01.773Z,11.90
2022-11-02T02:12:30.364Z,11.80
2022-11-02T02:14:57.491Z,11.90
2022-11-02T02:17:30.613Z,11.80
2022-11-02T02:20:15.345Z,11.80
2022-11-02T02:23:19.804Z,11.70
2022-11-02T02:26:11.016Z,11.70
2022-11-02T02:28:43.757Z,11.50
2022-11-02T02:31:20.571Z,11.50
2022-11-02T02:34:01.361Z,11.50
2022-11-02T02:36:49.638Z,11.50
2022-11-02T02:39:46.565Z,11.50
2022-11-02T02:42:31.849Z,11.50
2022-11-02T02:45:18.678Z,11.60
2022-11-02T02:47:55.984Z,11.70
2022-11-02T02:50:27.737Z,11.70
2022-11-02T02:52:57.018Z,11.60
2022-11-02T02:55:29.520Z,11.60
2022-11-02T02:57:58.325Z,11.60
2022-11-02T03:00:25.591Z,11.80
2022-11-02T03:03:01.560Z,11.80
2022-11-02T03:05:33.989Z,11.70
2022-11-02T03:08:07.059Z,11.70
2022-11-02T03:10:40.294Z,11.80
2022-11-02T03:13:15.248Z,11.80
2022-11-02T03:15:47.783Z,11.90
2022-11-02T03:18:42.327Z,11.90
2022-11-02T03:21:31.452Z,11.80
2022-11-02T03:24:13.522Z,11.80
2022-11-02T03:27:15.790Z,11.90
2022-11-02T03:30:14.606Z,12.10
2022-11-02T03:32:48.906Z,12.10
2022-11-02T03:35:22.574Z,12.20
2022-11-02T03:38:01.583Z,12.20
2022-11-02T03:40:45.501Z,12.20
2022-11-02T03:43:15.450Z,12.20
2022-11-02T03:45:55.249Z,12.20
2022-11-02T03:48:26.756Z,12.30
2022-11-02T03:50:54.769Z,12.40
2022-11-02T03:53:37.800Z,12.30
2022-11-02T03:56:09.457Z,12.30
2022-11-02T03:58:36.741Z,12.40
2022-11-02T04:01:10.246Z,12.30
2022-11-02T04:03:45.051Z,12.20
2022-11-02T04:06:15.315Z,12.20
2022-11-02T04:08:46.169Z,12.10
2022-11-02T04:11:34.225Z,12.10
2022-11-02T04:14:19.987Z,12.20
2022-11-02T04:16:46.936Z,12.30
2022-11-02T04:19:28.678Z,12.20
2022-11-02T04:22:15.155Z,12.30
2022-11-02T04:25:01.754Z,12.40
2022-11-02T04:27:28.633Z,12.60
2022-11-02T04:29:55.414Z,12.60
2022-11-02T04:32:41.104Z,12.60
2022-11-02T04:35:08.537Z,12.60
2022-11-02T04:38:01.587Z,12.70
2022-11-02T04:40:28.914Z,12.60
2022-11-02T04:42:58.930Z,12.50
2022-11-02T04:45:25.677Z,12.40
2022-11-02T04:47:52.441Z,12.30
2022-11-02T04:50:19.524Z,12.30
2022-11-02T04:52:46.661Z,12.40
2022-11-02T04:55:13.430Z,12.40
2022-11-02T04:57:45.156Z,12.40
2022-11-02T05:00:12.625Z,12.40
2022-11-02T05:02:39.563Z,12.30
2022-11-02T05:05:06.817Z,12.30
2022-11-02T05:07:34.112Z,12.40
2022-11-02T05:10:01.256Z,12.30
2022-11-02T05:12:29.413Z,12.50
2022-11-02T05:14:56.245Z,12.50
2022-11-02T05:17:23.481Z,12.50
2022-11-02T05:19:50.351Z,12.50
2022-11-02T05:22:17.141Z,12.50
2022-11-02T05:24:43.951Z,12.60
2022-11-02T05:27:10.798Z,12.80
2022-11-02T05:29:37.944Z,12.80
2022-11-02T05:32:04.961Z,12.70
2022-11-02T05:34:31.794Z,12.70
2022-11-02T05:36:58.832Z,12.70
2022-11-02T05:39:25.589Z,12.60
2022-11-02T05:41:52.339Z,12.60
2022-11-02T05:44:19.186Z,12.60
2022-11-02T05:46:45.915Z,12.70
2022-11-02T05:49:12.668Z,12.70
2022-11-02T05:51:39.397Z,12.90
2022-11-02T05:54:06.520Z,12.90
2022-11-02T05:56:33.333Z,12.90
2022-11-02T05:59:00.091Z,12.80
2022-11-02T06:01:26.893Z,12.80
2022-11-02T06:03:54.533Z,12.90
2022-11-02T06:06:22.028Z,12.90
2022-11-02T06:08:48.797Z,13.00
2022-11-02T06:11:16.408Z,13.00
2022-11-02T06:13:43.345Z,13.10
2022-11-02T06:16:12.049Z,13.20
2022-11-02T06:18:39.481Z,13.20
2022-11-02T06:21:06.579Z,13.10
2022-11-02T06:23:33.989Z,13.00
2022-11-02T06:26:01.992Z,13.00
2022-11-02T06:28:29.596Z,13.10
2022-11-02T06:30:56.747Z,13.20
2022-11-02T06:33:23.912Z,13.20
2022-11-02T06:35:55.129Z,13.30
2022-11-02T06:38:22.251Z,13.30
2022-11-02T06:41:00.345Z,13.30
2022-11-02T06:43:27.581Z,13.20
2022-11-02T06:45:55.913Z,13.20
2022-11-02T06:48:23.089Z,13.10
2022-11-02T06:50:49.821Z,13.20
2022-11-02T06:53:16.669Z,13.20
2022-11-02T06:55:44.100Z,13.30
2022-11-02T06:58:11.282Z,13.40
2022-11-02T07:00:38.048Z,13.60
2022-11-02T07:03:10.212Z,13.60
2022-11-02T07:05:37.972Z,13.70
2022-11-02T07:08:04.911Z,13.80
2022-11-02T07:10:32.026Z,13.90
2022-11-02T07:12:58.814Z,14.00
2022-11-02T07:15:27.239Z,14.00
2022-11-02T07:17:54.397Z,14.10
2022-11-02T07:20:22.157Z,14.30
2022-11-02T07:23:00.113Z,14.40
2022-11-02T07:25:31.065Z,14.50
2022-11-02T07:28:01.519Z,14.60
2022-11-02T07:30:30.386Z,14.80
2022-11-02T07:32:57.299Z,14.90
2022-11-02T07:35:24.635Z,15.10
2022-11-02T07:37:59.982Z,15.30
2022-11-02T07:40:28.593Z,15.40
2022-11-02T07:42:56.015Z,15.50
2022-11-02T07:45:24.226Z,15.60
2022-11-02T07:47:51.600Z,15.70
2022-11-02T07:50:20.871Z,15.90
2022-11-02T07:52:49.696Z,16.00
2022-11-02T07:55:18.469Z,16.20
2022-11-02T07:57:54.539Z,16.30
2022-11-02T08:00:21.837Z,16.30
2022-11-02T08:02:49.097Z,16.40
2022-11-02T08:05:16.099Z,16.50
2022-11-02T08:07:43.493Z,16.60
2022-11-02T08:10:10.290Z,16.80
2022-11-02T08:12:37.032Z,17.00
2022-11-02T08:15:07.584Z,17.10
2022-11-02T08:17:35.231Z,17.30
2022-11-02T08:20:02.048Z,17.40
2022-11-02T08:22:28.871Z,17.70
2022-11-02T08:24:55.655Z,17.90
2022-11-02T08:27:22.422Z,18.20
2022-11-02T08:29:49.189Z,18.40
2022-11-02T08:32:15.910Z,18.80
2022-11-02T08:34:43.094Z,18.90
2022-11-02T08:37:09.924Z,19.10
2022-11-02T08:39:36.793Z,19.20
2022-11-02T08:42:03.665Z,19.60
2022-11-02T08:44:30.408Z,19.90
2022-11-02T08:46:57.683Z,20.30
2022-11-02T08:49:24.486Z,20.50
2022-11-02T08:51:51.231Z,20.60
2022-11-02T08:54:17.937Z,20.60
2022-11-02T08:56:44.736Z,20.60
2022-11-02T08:59:12.001Z,20.70
2022-11-02T09:01:39.334Z,20.90
2022-11-02T09:04:06.650Z,20.90
2022-11-02T09:06:33.492Z,21.10
2022-11-02T09:09:00.332Z,21.40
2022-11-02T09:11:27.637Z,21.50
2022-11-02T09:13:57.100Z,21.80
2022-11-02T09:16:24.176Z,22.00
2022-11-02T09:18:51.327Z,22.40
2022-11-02T09:21:18.465Z,22.90
2022-11-02T09:23:48.569Z,23.30
2022-11-02T09:26:16.129Z,23.70
2022-11-02T09:28:43.011Z,24.20
2022-11-02T09:31:11.637Z,24.40
2022-11-02T09:33:39.019Z,24.60
2022-11-02T09:36:06.333Z,24.70
2022-11-02T09:38:33.632Z,25.00
2022-11-02T09:41:32.828Z,25.40
2022-11-02T09:44:03.528Z,25.60
2022-11-02T09:46:43.310Z,26.00
2022-11-02T09:49:19.968Z,26.20
2022-11-02T09:51:48.857Z,26.50
2022-11-02T09:54:23.490Z,26.60
2022-11-02T09:56:52.501Z,26.80
2022-11-02T09:59:21.809Z,27.30
2022-11-02T10:02:02.537Z,27.70
2022-11-02T10:04:50.217Z,28.20
2022-11-02T10:07:48.470Z,28.80
2022-11-02T10:10:43.126Z,29.30
2022-11-02T10:13:18.988Z,29.80
2022-11-02T10:15:54.526Z,30.20
2022-11-02T10:18:26.455Z,30.40
2022-11-02T10:21:02.503Z,30.70
2022-11-02T10:23:34.594Z,31.20
2022-11-02T10:26:02.899Z,31.80
2022-11-02T10:28:34.358Z,32.60
2022-11-02T10:31:04.430Z,33.30
2022-11-02T10:33:31.554Z,34.20
2022-11-02T10:36:21.637Z,35.00
2022-11-02T10:38:51.162Z,35.10
2022-11-02T10:41:20.737Z,34.90
2022-11-02T10:44:01.665Z,34.50
2022-11-02T10:46:48.387Z,33.80
2022-11-02T10:49:40.325Z,33.20
2022-11-02T10:52:10.368Z,33.70
2022-11-02T10:54:37.475Z,34.20
2022-11-02T10:57:14.706Z,34.50
2022-11-02T10:59:41.454Z,35.40
2022-11-02T11:02:15.022Z,36.20
2022-11-02T11:04:42.524Z,36.30
2022-11-02T11:07:26.500Z,36.20
2022-11-02T11:09:57.502Z,36.70
2022-11-02T11:12:32.069Z,37.50
2022-11-02T11:20:38.537Z,39.40
2022-11-02T11:23:23.250Z,40.00
2022-11-02T11:26:00.550Z,39.60
2022-11-02T11:28:37.436Z,40.20
2022-11-02T11:31:16.617Z,39.70
2022-11-02T11:33:56.430Z,38.50
2022-11-02T11:36:30.917Z,37.10
2022-11-02T11:39:26.154Z,35.50
2022-11-02T11:41:53.029Z,34.00
2022-11-02T11:44:21.140Z,33.00
2022-11-02T11:46:57.536Z,32.40
2022-11-02T11:52:36.481Z,31.60
2022-11-02T11:55:20.383Z,31.40
2022-11-02T11:58:05.779Z,31.40
2022-11-02T12:00:32.995Z,31.30
2022-11-02T12:03:11.841Z,31.00
2022-11-02T12:05:58.965Z,30.80
2022-11-02T12:09:00.208Z,30.40
2022-11-02T12:11:49.677Z,30.10
2022-11-02T12:14:43.281Z,30.30
2022-11-02T12:17:15.954Z,31.10
2022-11-02T12:20:18.996Z,32.60
2022-11-02T12:23:04.931Z,34.20
2022-11-02T12:26:01.609Z,36.10
2022-11-02T12:28:59.305Z,38.10
2022-11-02T12:31:42.933Z,39.30
2022-11-02T12:34:09.675Z,40.60
2022-11-02T12:40:04.841Z,41.90
2022-11-02T12:42:49.816Z,42.30
2022-11-02T12:45:34.720Z,42.30
2022-11-02T12:48:05.597Z,41.90
2022-11-02T12:50:53.607Z,42.90
2022-11-02T12:53:39.639Z,42.50
2022-11-02T12:56:12.064Z,42.40
2022-11-02T12:58:40.964Z,42.20
2022-11-02T13:01:21.997Z,42.40
2022-11-02T13:04:13.961Z,42.30
2022-11-02T13:06:49.828Z,42.10
2022-11-02T13:09:16.521Z,41.90
2022-11-02T13:11:53.025Z,41.70
2022-11-02T13:14:22.217Z,41.80
2022-11-02T13:17:22.089Z,41.60
2022-11-02T13:20:04.833Z,41.90
2022-11-02T13:22:38.246Z,41.60
2022-11-02T13:25:23.320Z,41.60
2022-11-02T13:28:00.113Z,41.90
2022-11-02T13:30:32.749Z,41.90
2022-11-02T13:33:18.816Z,41.80
2022-11-02T13:35:46.323Z,41.80
2022-11-02T13:38:13.043Z,41.80
2022-11-02T13:40:51.716Z,42.00
2022-11-02T13:43:30.459Z,41.80
2022-11-02T13:46:11.637Z,41.70
2022-11-02T13:48:48.587Z,41.50
2022-11-02T13:51:40.866Z,41.60
2022-11-02T13:54:21.566Z,41.40
2022-11-02T13:56:53.821Z,41.40
2022-11-02T13:59:25.837Z,41.20
2022-11-02T14:01:54.498Z,40.80
2022-11-02T14:04:22.122Z,40.90
2022-11-02T14:06:51.411Z,40.80
2022-11-02T14:09:29.831Z,40.70
2022-11-02T14:12:17.891Z,40.50
2022-11-02T14:14:45.689Z,40.20
2022-11-02T14:17:18.588Z,39.90
2022-11-02T14:19:48.046Z,39.70
2022-11-02T14:22:16.549Z,39.30
2022-11-02T14:24:43.249Z,39.00
2022-11-02T14:27:10.434Z,39.00
2022-11-02T14:29:46.359Z,38.70
2022-11-02T14:32:28.019Z,38.40
2022-11-02T14:35:26.795Z,37.90
2022-11-02T14:38:12.045Z,37.40
2022-11-02T14:41:08.161Z,36.90
2022-11-02T14:44:01.871Z,36.70
2022-11-02T14:46:49.959Z,36.30
2022-11-02T14:49:35.545Z,35.90
2022-11-02T14:52:13.477Z,35.60
2022-11-02T14:54:48.679Z,34.90
2022-11-02T14:57:34.716Z,34.00
2022-11-02T15:00:28.626Z,33.50
2022-11-02T15:02:57.176Z,33.20
2022-11-02T15:05:30.160Z,32.80
2022-11-02T15:08:09.382Z,32.20
2022-11-02T15:10:40.657Z,31.70
2022-11-02T15:13:19.662Z,31.40
2022-11-02T15:15:55.750Z,30.80
2022-11-02T15:18:34.560Z,30.10
2022-11-02T15:21:10.319Z,29.00
2022-11-02T15:23:55.971Z,28.00
2022-11-02T15:26:44.391Z,27.00
2022-11-02T15:29:24.476Z,26.10
2022-11-02T15:31:57.491Z,25.30
2022-11-02T15:34:47.374Z,24.80
2022-11-02T15:37:22.189Z,24.10
2022-11-02T15:40:04.397Z,23.70
2022-11-02T15:43:00.586Z,23.20
2022-11-02T15:45:51.863Z,22.80
2022-11-02T15:48:23.449Z,22.50
2022-11-02T15:51:02.462Z,22.00
2022-11-02T15:54:07.238Z,21.70
2022-11-02T15:56:36.999Z,21.50
2022-11-02T15:59:12.968Z,21.30
2022-11-02T16:01:40.872Z,21.10
2022-11-02T16:06:44.141Z,20.80
2022-11-02T16:09:39.138Z,20.60
2022-11-02T16:12:18.849Z,20.50
2022-11-02T16:14:58.330Z,20.40
2022-11-02T16:17:30.253Z,20.30
2022-11-02T16:20:21.839Z,20.10
2022-11-02T16:22:51.308Z,20.10
2022-11-02T16:25:25.341Z,20.00
2022-11-02T16:27:52.543Z,19.80
2022-11-02T16:30:21.846Z,19.80
2022-11-02T16:32:52.693Z,19.60
2022-11-02T16:35:21.456Z,19.60
2022-11-02T16:37:49.819Z,19.50
2022-11-02T16:40:18.573Z,19.40
2022-11-02T16:42:51.748Z,19.30
2022-11-02T16:45:42.115Z,19.30
2022-11-02T16:48:35.256Z,19.20
2022-11-02T16:51:14.594Z,19.10
2022-11-02T16:53:42.279Z,19.00
2022-11-02T16:56:28.117Z,19.00
2022-11-02T16:59:06.056Z,18.80
2022-11-02T17:01:38.953Z,18.70
2022-11-02T17:04:17.963Z,18.60
2022-11-02T17:06:45.557Z,18.50
2022-11-02T17:09:32.864Z,18.40
2022-11-02T17:12:06.458Z,18.30
2022-11-02T17:14:33.660Z,18.30
2022-11-02T17:17:27.002Z,18.30
2022-11-02T17:20:05.320Z,18.30
2022-11-02T17:22:36.549Z,18.10
2022-11-02T17:25:10.339Z,18.00
2022-11-02T17:27:39.495Z,17.90
2022-11-02T17:30:35.072Z,18.00
2022-11-02T17:33:42.725Z,18.10
2022-11-02T17:36:09.940Z,18.10
2022-11-02T17:38:36.933Z,18.10
2022-11-02T17:41:24.436Z,18.00
2022-11-02T17:43:51.678Z,18.00
2022-11-02T17:46:18.793Z,18.00
2022-11-02T17:48:45.942Z,17.90
2022-11-02T17:51:12.915Z,17.90
2022-11-02T17:53:39.648Z,18.00
2022-11-02T17:56:06.618Z,18.00
2022-11-02T17:58:33.799Z,17.90
2022-11-02T18:01:02.432Z,18.00
2022-11-02T18:03:31.372Z,18.00
2022-11-02T18:06:00.253Z,18.00
2022-11-02T18:08:27.610Z,17.90
2022-11-02T18:10:54.550Z,18.00
2022-11-02T18:13:23.070Z,18.00
2022-11-02T18:15:50.364Z,18.00
2022-11-02T18:18:17.124Z,18.00
2022-11-02T18:20:44.453Z,17.90
2022-11-02T18:23:16.618Z,17.80
2022-11-02T18:25:43.886Z,17.70
2022-11-02T18:28:11.202Z,17.60
2022-11-02T18:30:43.163Z,17.70
2022-11-02T18:33:13.396Z,17.70
2022-11-02T18:35:42.225Z,17.70
2022-11-02T18:38:09.733Z,17.60
2022-11-02T18:40:36.495Z,17.60
2022-11-02T18:43:03.701Z,17.50
2022-11-02T18:45:31.268Z,17.40
2022-11-02T18:47:58.158Z,17.50
2022-11-02T18:50:25.362Z,17.40
2022-11-02T18:52:52.403Z,17.40
2022-11-02T18:55:19.250Z,17.40
2022-11-02T18:57:46.380Z,17.20
2022-11-02T19:00:13.901Z,17.20
2022-11-02T19:02:41.152Z,17.10
2022-11-02T19:05:28.146Z,17.00
2022-11-02T19:08:13.724Z,17.00
2022-11-02T19:10:41.515Z,16.80
2022-11-02T19:13:08.547Z,16.70
2022-11-02T19:15:41.316Z,16.60
2022-11-02T19:18:09.366Z,16.70
2022-11-02T19:20:36.697Z,16.60
2022-11-02T19:23:03.665Z,16.60
2022-11-02T19:25:30.402Z,16.40
2022-11-02T19:27:57.254Z,16.30
2022-11-02T19:30:24.440Z,16.30
2022-11-02T19:32:51.648Z,16.30
2022-11-02T19:35:18.404Z,16.40
2022-11-02T19:37:45.208Z,16.40
2022-11-02T19:40:12.252Z,16.40
2022-11-02T19:42:39.842Z,16.30
2022-11-02T19:45:07.099Z,16.30
2022-11-02T19:47:34.341Z,16.20
2022-11-02T19:50:01.200Z,16.20
2022-11-02T19:52:27.952Z,16.20
2022-11-02T19:54:54.714Z,16.10
2022-11-02T19:57:21.498Z,16.20
2022-11-02T19:59:48.255Z,16.20
2022-11-02T20:02:15.791Z,16.30
2022-11-02T20:04:44.271Z,16.30
2022-11-02T20:07:11.565Z,16.20
2022-11-02T20:09:38.746Z,16.30
2022-11-02T20:12:07.620Z,16.30
2022-11-02T20:14:36.341Z,16.40
2022-11-02T20:17:29.483Z,16.30
2022-11-02T20:19:50.300Z,16.30
2022-11-02T20:22:18.454Z,16.20
2022-11-02T20:24:45.206Z,16.10
2022-11-02T20:27:13.893Z,16.10
2022-11-02T20:29:40.735Z,16.10
2022-11-02T20:32:10.217Z,16.00
2022-11-02T20:34:37.181Z,16.00
2022-11-02T20:37:05.105Z,15.90
2022-11-02T20:39:32.294Z,15.90
2022-11-02T20:41:59.801Z,15.90
2022-11-02T20:44:26.625Z,15.90
2022-11-02T20:46:53.754Z,15.80
2022-11-02T20:49:48.332Z,15.70
2022-11-02T20:52:10.052Z,15.70
2022-11-02T20:54:36.818Z,15.70
2022-11-02T20:57:03.649Z,15.70
2022-11-02T20:59:30.510Z,15.60
2022-11-02T21:01:57.816Z,15.60
2022-11-02T21:04:25.228Z,15.50
2022-11-02T21:06:52.001Z,15.70
2022-11-02T21:09:19.366Z,15.70
2022-11-02T21:12:05.225Z,15.60
2022-11-02T21:14:31.938Z,15.50
2022-11-02T21:16:58.867Z,15.40
2022-11-02T21:19:25.642Z,15.30
2022-11-02T21:21:58.148Z,15.30
2022-11-02T21:24:27.026Z,15.20
2022-11-02T21:26:54.334Z,15.20
2022-11-02T21:29:21.529Z,15.30
2022-11-02T21:31:48.793Z,15.20
2022-11-02T21:34:15.664Z,15.20
2022-11-02T21:36:42.374Z,15.20
2022-11-02T21:39:09.541Z,15.10
2022-11-02T21:41:38.483Z,15.10
2022-11-02T21:44:06.961Z,15.10
2022-11-02T21:46:34.221Z,15.00
2022-11-02T21:49:01.211Z,15.10
2022-11-02T21:51:28.540Z,15.00
2022-11-02T21:53:56.728Z,15.00
2022-11-02T21:56:27.960Z,15.00
2022-11-02T21:58:55.985Z,15.00
2022-11-02T22:01:48.406Z,15.00
2022-11-02T22:04:31.937Z,14.90
2022-11-02T22:07:00.250Z,14.80
2022-11-02T22:09:28.316Z,14.80
2022-11-02T22:12:14.730Z,14.70
2022-11-02T22:14:42.421Z,14.70
2022-11-02T22:17:16.504Z,14.80
2022-11-02T22:19:50.800Z,14.80
2022-11-02T22:22:18.738Z,14.70
2022-11-02T22:24:45.668Z,14.60
2022-11-02T22:27:12.452Z,14.50
2022-11-02T22:29:39.230Z,14.40
2022-11-02T22:32:06.252Z,14.50
2022-11-02T22:34:33.424Z,14.50
2022-11-02T22:37:20.159Z,14.60
2022-11-02T22:39:46.980Z,14.60
2022-11-02T22:42:14.110Z,14.40
2022-11-02T22:44:41.182Z,14.30
2022-11-02T22:47:07.876Z,14.30
2022-11-02T22:49:36.266Z,14.30
2022-11-02T22:52:03.197Z,14.30
2022-11-02T22:54:30.362Z,14.20
2022-11-02T22:56:57.485Z,14.10
2022-11-02T22:59:24.251Z,14.00
2022-11-02T23:01:51.377Z,14.10
2022-11-02T23:04:18.444Z,14.00
2022-11-02T23:06:45.589Z,14.00
2022-11-02T23:09:12.385Z,13.90
2022-11-02T23:11:39.467Z,13.80
2022-11-02T23:14:13.428Z,13.80
2022-11-02T23:16:42.714Z,13.70
2022-11-02T23:19:27.125Z,13.50
2022-11-02T23:22:27.926Z,13.40
2022-11-02T23:25:13.828Z,13.40
2022-11-02T23:27:59.094Z,13.30
2022-11-02T23:30:49.420Z,13.20
2022-11-02T23:33:16.933Z,13.20
2022-11-02T23:36:02.831Z,13.20
2022-11-02T23:38:48.161Z,13.20
2022-11-02T23:41:15.791Z,13.20
2022-11-02T23:43:43.018Z,13.30
2022-11-02T23:46:10.267Z,13.30
2022-11-02T23:48:37.008Z,13.40
2022-11-02T23:51:23.024Z,13.30
2022-11-02T23:54:08.494Z,13.30
2022-11-02T23:56:44.646Z,13.30
2022-11-02T23:59:11.897Z,13.30
